Time;durP1;ratioP1;P1;durP2;ratioP2;P2;SDS_P1;SDS_P2;PMS_P1;PMS_P2;Temp;Humidity;BMP_temperature;BMP_pressure;BME280_temperature;BME280_humidity;BME280_pressure;Samples;Min_cycle;Max_cycle;Signal;HPM_P1;HPM_P2
2023/09/06 00:00:40;;;;;;;4.28;3.88;;;19.40;99.90;;;;;;5066289;28;36961;-74
2023/09/06 00:03:06;;;;;;;5.75;3.85;;;19.40;99.90;;;;;;5066435;28;36896;-74
2023/09/06 00:05:32;;;;;;;5.88;4.05;;;19.40;99.90;;;;;;5059749;28;40020;-74
2023/09/06 00:07:59;;;;;;;5.40;3.63;;;19.40;99.90;;;;;;5057922;28;37601;-74
2023/09/06 00:10:25;;;;;;;7.10;4.15;;;19.30;99.90;;;;;;5047831;28;38661;-74
2023/09/06 00:12:51;;;;;;;7.97;4.65;;;19.40;99.90;;;;;;5054534;28;37153;-74
2023/09/06 00:15:18;;;;;;;5.00;3.75;;;19.30;99.90;;;;;;5064223;28;37584;-74
2023/09/06 00:17:44;;;;;;;5.38;4.18;;;19.30;99.90;;;;;;5055617;28;38776;-75
2023/09/06 00:20:26;;;;;;;4.35;3.95;;;19.40;99.90;;;;;;5062219;28;37178;-73
2023/09/06 00:23:00;;;;;;;4.95;4.20;;;19.40;99.90;;;;;;5055820;28;37183;-73
2023/09/06 00:25:28;;;;;;;5.68;3.88;;;19.50;99.90;;;;;;5072051;28;37730;-74
2023/09/06 00:27:55;;;;;;;6.05;4.18;;;19.40;99.90;;;;;;5065390;28;38405;-74
2023/09/06 00:30:21;;;;;;;6.72;4.57;;;19.50;99.90;;;;;;5058600;28;37764;-74
2023/09/06 00:32:52;;;;;;;4.57;4.18;;;19.50;99.90;;;;;;5061276;28;37405;-74
2023/09/06 00:35:20;;;;;;;5.55;4.00;;;19.50;99.90;;;;;;5060433;28;37724;-74
2023/09/06 00:37:46;;;;;;;5.43;3.83;;;19.50;99.90;;;;;;5049383;28;37242;-74
2023/09/06 00:40:21;;;;;;;7.18;4.10;;;19.50;99.90;;;;;;5053833;28;37070;-74
2023/09/06 00:42:52;;;;;;;5.95;3.97;;;19.50;99.90;;;;;;5057805;28;36127;-73
2023/09/06 00:45:22;;;;;;;5.33;3.87;;;19.50;99.90;;;;;;5058657;28;37855;-74
2023/09/06 00:47:55;;;;;;;4.57;3.58;;;19.50;99.90;;;;;;5051958;28;36873;-74
2023/09/06 00:50:21;;;;;;;5.55;4.10;;;19.40;99.90;;;;;;5046267;28;37829;-74
2023/09/06 00:52:52;;;;;;;4.97;3.90;;;19.50;99.90;;;;;;5056574;28;37012;-73
2023/09/06 00:55:19;;;;;;;4.20;3.65;;;19.40;99.90;;;;;;5054057;28;38187;-73
2023/09/06 00:57:46;;;;;;;4.85;3.20;;;19.40;99.90;;;;;;5064414;28;38631;-73
2023/09/06 01:00:19;;;;;;;5.30;3.88;;;19.40;99.90;;;;;;5056404;28;39228;-73
2023/09/06 01:02:49;;;;;;;4.85;3.75;;;19.40;99.90;;;;;;5495653;22;49245;-75
2023/09/06 01:05:16;;;;;;;4.65;3.83;;;19.30;99.90;;;;;;5030334;28;40366;-75
2023/09/06 01:07:47;;;;;;;4.30;3.83;;;19.30;99.90;;;;;;5044595;28;37211;-73
2023/09/06 01:10:13;;;;;;;4.55;3.65;;;19.30;99.90;;;;;;5046793;28;37803;-74
2023/09/06 01:12:39;;;;;;;6.15;4.20;;;19.30;99.90;;;;;;5047185;28;36677;-75
2023/09/06 01:15:06;;;;;;;5.53;4.20;;;19.20;99.90;;;;;;5044907;28;39194;-74
2023/09/06 01:17:35;;;;;;;4.47;3.80;;;19.20;99.90;;;;;;5042206;28;37530;-75
2023/09/06 01:20:17;;;;;;;4.28;3.50;;;19.20;99.90;;;;;;5044221;28;37602;-75
2023/09/06 01:22:56;;;;;;;4.25;3.70;;;19.10;99.90;;;;;;5046148;28;48121;-74
2023/09/06 01:25:22;;;;;;;5.85;3.65;;;19.10;99.90;;;;;;5044497;28;37755;-74
2023/09/06 01:27:48;;;;;;;4.40;3.67;;;19.10;99.90;;;;;;5059656;28;36932;-75
2023/09/06 01:30:15;;;;;;;4.55;3.80;;;19.00;99.90;;;;;;5043149;28;37949;-75
2023/09/06 01:32:41;;;;;;;6.22;4.20;;;19.00;99.90;;;;;;5032688;28;36438;-74
2023/09/06 01:35:09;;;;;;;4.75;4.20;;;19.00;99.90;;;;;;5044395;28;38567;-75
2023/09/06 01:37:37;;;;;;;5.75;4.22;;;18.90;99.90;;;;;;5044629;28;37529;-74
2023/09/06 01:40:14;;;;;;;4.72;4.22;;;18.90;99.90;;;;;;5042146;28;38935;-75
2023/09/06 01:42:40;;;;;;;5.53;4.70;;;18.90;99.90;;;;;;5046461;28;48369;-74
2023/09/06 01:45:07;;;;;;;5.18;4.57;;;18.90;99.90;;;;;;5045978;28;38650;-74
2023/09/06 01:47:33;;;;;;;6.93;5.22;;;18.80;99.90;;;;;;5044489;28;37762;-74
2023/09/06 01:49:59;;;;;;;5.75;4.75;;;18.80;99.90;;;;;;5039554;28;37608;-73
2023/09/06 01:52:25;;;;;;;6.07;5.00;;;18.80;99.90;;;;;;5039792;28;36261;-74
2023/09/06 01:54:51;;;;;;;4.80;4.35;;;18.80;99.90;;;;;;5045115;28;39851;-74
2023/09/06 01:57:17;;;;;;;7.90;5.15;;;18.80;99.90;;;;;;5044111;28;38133;-74
2023/09/06 01:59:47;;;;;;;5.15;4.70;;;18.70;99.90;;;;;;5048586;28;37913;-74
2023/09/06 02:02:13;;;;;;;6.30;5.47;;;18.70;99.90;;;;;;5049656;28;37941;-75
2023/09/06 02:04:39;;;;;;;6.78;4.68;;;18.70;99.90;;;;;;5045960;28;37874;-75
2023/09/06 02:07:05;;;;;;;5.55;4.95;;;18.70;99.90;;;;;;5038283;28;38362;-75
2023/09/06 02:09:31;;;;;;;5.60;4.85;;;18.70;99.90;;;;;;5045001;28;39054;-74
2023/09/06 02:11:59;;;;;;;6.07;5.07;;;18.70;99.90;;;;;;5047634;28;38196;-74
2023/09/06 02:14:25;;;;;;;5.30;4.80;;;18.70;99.90;;;;;;5050252;28;37659;-74
2023/09/06 02:16:51;;;;;;;6.72;4.93;;;18.70;99.90;;;;;;5046125;28;38395;-75
2023/09/06 02:19:18;;;;;;;6.88;4.43;;;18.70;99.90;;;;;;5047213;28;38479;-74
2023/09/06 02:21:44;;;;;;;6.32;5.05;;;18.70;99.90;;;;;;5048531;28;36110;-74
2023/09/06 02:24:10;;;;;;;5.97;5.28;;;18.70;99.90;;;;;;5046428;28;38350;-74
2023/09/06 02:26:37;;;;;;;5.18;4.68;;;18.70;99.90;;;;;;5046833;28;38840;-74
2023/09/06 02:29:04;;;;;;;5.18;4.68;;;18.60;99.90;;;;;;5047396;28;38211;-75
2023/09/06 02:31:30;;;;;;;7.72;5.90;;;18.60;99.90;;;;;;5048664;28;36311;-75
2023/09/06 02:33:56;;;;;;;5.53;5.00;;;18.60;99.90;;;;;;5048725;28;37660;-74
2023/09/06 02:36:22;;;;;;;5.30;4.80;;;18.50;99.90;;;;;;5040977;28;38635;-75
2023/09/06 02:38:48;;;;;;;6.57;4.95;;;18.50;99.90;;;;;;5044959;28;36982;-75
2023/09/06 02:41:15;;;;;;;6.78;5.00;;;18.40;99.90;;;;;;5041123;28;36135;-77
2023/09/06 02:43:41;;;;;;;5.93;4.93;;;18.40;99.90;;;;;;5043835;28;37531;-76
2023/09/06 02:46:07;;;;;;;5.90;5.30;;;18.40;99.90;;;;;;5039792;28;38916;-76
2023/09/06 02:48:33;;;;;;;5.82;4.55;;;18.40;99.90;;;;;;5043650;28;38075;-74
2023/09/06 02:50:59;;;;;;;9.50;4.95;;;18.40;99.90;;;;;;5045346;28;36328;-74
2023/09/06 02:53:26;;;;;;;7.47;5.30;;;18.30;99.90;;;;;;5041626;28;39266;-75
2023/09/06 02:55:53;;;;;;;4.90;4.50;;;18.30;99.90;;;;;;5045504;28;38254;-75
2023/09/06 02:58:23;;;;;;;6.05;4.20;;;18.30;99.90;;;;;;5041169;28;38071;-76
2023/09/06 03:00:57;;;;;;;4.60;4.20;;;18.30;99.90;;;;;;5042455;28;37040;-76
2023/09/06 03:03:26;;;;;;;8.15;5.47;;;18.20;99.90;;;;;;5044004;28;37991;-75
2023/09/06 03:06:03;;;;;;;6.22;4.47;;;18.20;99.90;;;;;;5037993;28;37881;-75
2023/09/06 03:08:29;;;;;;;6.32;4.57;;;18.20;99.90;;;;;;5039892;28;47558;-75
2023/09/06 03:10:56;;;;;;;7.95;5.82;;;18.20;99.90;;;;;;5047766;28;37583;-76
2023/09/06 03:13:22;;;;;;;6.15;5.10;;;18.10;99.90;;;;;;5046542;28;37741;-75
2023/09/06 03:15:51;;;;;;;6.30;5.70;;;18.10;99.90;;;;;;5041702;28;38873;-76
2023/09/06 03:18:18;;;;;;;5.97;4.85;;;18.10;99.90;;;;;;5044346;28;36958;-76
2023/09/06 03:20:45;;;;;;;9.20;5.50;;;18.10;99.90;;;;;;5045037;28;37921;-75
2023/09/06 03:23:19;;;;;;;6.10;4.75;;;18.00;99.90;;;;;;5043002;28;37830;-76
2023/09/06 03:25:57;;;;;;;7.32;5.00;;;18.00;99.90;;;;;;5059816;28;37498;-75
2023/09/06 03:28:28;;;;;;;5.82;5.25;;;18.00;99.90;;;;;;5056710;28;37363;-75
2023/09/06 03:30:58;;;;;;;6.30;4.63;;;18.00;99.90;;;;;;5040619;28;36369;-75
2023/09/06 03:33:28;;;;;;;7.68;4.93;;;18.00;99.90;;;;;;5042509;28;38888;-75
2023/09/06 03:35:54;;;;;;;6.85;5.35;;;18.00;99.90;;;;;;5046289;28;39293;-75
2023/09/06 03:38:25;;;;;;;6.57;5.15;;;18.00;99.90;;;;;;5043982;28;37143;-76
2023/09/06 03:40:51;;;;;;;6.18;5.03;;;18.00;99.90;;;;;;5045929;28;36084;-76
2023/09/06 03:43:26;;;;;;;6.50;5.57;;;17.90;99.90;;;;;;5043149;28;37727;-75
2023/09/06 03:45:55;;;;;;;7.57;5.45;;;17.90;99.90;;;;;;5042053;28;38270;-75
2023/09/06 03:48:23;;;;;;;6.32;5.45;;;17.90;99.90;;;;;;5043106;28;37633;-75
2023/09/06 03:50:54;;;;;;;7.43;5.63;;;17.90;99.90;;;;;;5038507;28;37022;-75
2023/09/06 03:53:23;;;;;;;5.57;4.75;;;17.80;99.90;;;;;;5040029;28;39579;-76
2023/09/06 03:55:50;;;;;;;6.00;4.97;;;17.80;99.90;;;;;;5046929;28;38516;-77
2023/09/06 03:58:16;;;;;;;5.95;5.00;;;17.80;99.90;;;;;;5046136;28;38322;-75
2023/09/06 04:00:43;;;;;;;9.13;5.30;;;17.70;99.90;;;;;;5044429;28;37005;-76
2023/09/06 04:03:10;;;;;;;5.40;4.90;;;17.80;99.90;;;;;;5046398;28;38297;-76
2023/09/06 04:05:37;;;;;;;7.05;5.45;;;17.70;99.90;;;;;;5042922;28;38851;-76
2023/09/06 04:08:29;;;;;;;5.65;5.13;;;17.70;99.90;;;;;;5052556;28;37194;-77
2023/09/06 04:10:50;;;;;;;5.47;4.97;;;17.70;99.90;;;;;;5040714;28;37000;-76
2023/09/06 04:13:16;;;;;;;6.53;5.43;;;17.70;99.90;;;;;;5046510;28;38622;-75
2023/09/06 04:15:45;;;;;;;5.68;5.18;;;17.60;99.90;;;;;;5044158;28;38166;-76
2023/09/06 04:18:12;;;;;;;6.43;5.20;;;17.60;99.90;;;;;;5042655;28;38082;-76
2023/09/06 04:20:44;;;;;;;9.45;5.60;;;17.60;99.90;;;;;;5043739;28;37788;-75
2023/09/06 04:23:13;;;;;;;6.05;4.60;;;17.60;99.90;;;;;;5046308;28;39477;-76
2023/09/06 04:25:41;;;;;;;7.95;5.30;;;17.60;99.90;;;;;;5045171;28;37047;-76
2023/09/06 04:28:09;;;;;;;4.25;3.85;;;17.60;99.90;;;;;;5038785;28;37223;-76
2023/09/06 04:30:37;;;;;;;7.82;4.97;;;17.60;99.90;;;;;;5040702;28;38119;-76
2023/09/06 04:33:05;;;;;;;8.63;5.32;;;17.50;99.90;;;;;;5039042;28;37736;-75
2023/09/06 04:35:38;;;;;;;5.05;4.60;;;17.50;99.90;;;;;;5037568;28;39111;-76
2023/09/06 04:38:04;;;;;;;5.65;4.93;;;17.50;99.90;;;;;;5040300;28;38169;-76
2023/09/06 04:40:31;;;;;;;6.47;5.57;;;17.50;99.90;;;;;;5040934;28;37110;-77
2023/09/06 04:42:57;;;;;;;7.22;5.28;;;17.50;99.90;;;;;;5042769;28;39630;-76
2023/09/06 04:45:23;;;;;;;6.43;4.95;;;17.50;99.90;;;;;;5035404;28;36598;-76
2023/09/06 04:47:49;;;;;;;7.28;5.22;;;17.50;99.90;;;;;;5033009;28;38920;-76
2023/09/06 04:50:15;;;;;;;7.75;5.03;;;17.50;99.90;;;;;;5037570;28;35856;-76
2023/09/06 04:52:46;;;;;;;7.85;5.60;;;17.40;99.90;;;;;;5043222;28;38492;-77
2023/09/06 04:55:14;;;;;;;7.82;5.32;;;17.40;99.90;;;;;;5040289;28;37136;-79
2023/09/06 04:57:45;;;;;;;6.75;5.53;;;17.40;99.90;;;;;;5036736;28;37569;-77
2023/09/06 05:00:23;;;;;;;7.13;5.17;;;17.40;99.90;;;;;;5040474;28;36059;-76
2023/09/06 05:02:53;;;;;;;6.85;5.30;;;17.40;99.90;;;;;;5053844;28;39214;-78
2023/09/06 05:05:21;;;;;;;5.45;4.90;;;17.40;99.90;;;;;;5035345;28;37200;-76
2023/09/06 05:07:47;;;;;;;6.10;4.93;;;17.40;99.90;;;;;;5034341;28;36773;-77
2023/09/06 05:10:13;;;;;;;8.13;5.88;;;17.40;99.90;;;;;;5022715;28;36239;-76
2023/09/06 05:12:40;;;;;;;6.22;5.38;;;17.40;99.90;;;;;;5035790;28;37349;-75
2023/09/06 05:15:06;;;;;;;5.65;5.05;;;17.40;99.90;;;;;;5035260;28;38165;-75
2023/09/06 05:17:33;;;;;;;8.50;5.72;;;17.40;99.90;;;;;;5037882;28;37662;-76
2023/09/06 05:20:27;;;;;;;6.05;5.45;;;17.40;99.90;;;;;;5040534;28;36021;-76
2023/09/06 05:23:00;;;;;;;8.38;6.07;;;17.40;99.90;;;;;;5052675;28;47371;-76
2023/09/06 05:25:26;;;;;;;7.38;6.03;;;17.40;99.90;;;;;;5033005;28;37712;-75
2023/09/06 05:27:56;;;;;;;6.35;5.75;;;17.40;99.90;;;;;;5042063;28;38263;-74
2023/09/06 05:30:23;;;;;;;6.78;5.97;;;17.40;99.90;;;;;;5033496;28;37146;-74
2023/09/06 05:32:49;;;;;;;6.88;6.18;;;17.40;99.90;;;;;;5043038;28;38777;-75
2023/09/06 05:35:16;;;;;;;7.88;5.93;;;17.40;99.90;;;;;;5033012;28;37219;-77
2023/09/06 05:37:42;;;;;;;8.77;6.63;;;17.40;99.90;;;;;;5038329;28;37730;-74
2023/09/06 05:40:12;;;;;;;6.53;5.90;;;17.60;99.90;;;;;;5037124;28;34583;-77
2023/09/06 05:42:39;;;;;;;6.95;5.85;;;17.60;99.90;;;;;;5054628;28;37807;-80
2023/09/06 05:45:13;;;;;;;9.02;6.38;;;17.60;99.90;;;;;;5042844;28;38700;-76
2023/09/06 05:47:39;;;;;;;9.88;6.97;;;17.60;99.90;;;;;;5036743;28;36933;-76
2023/09/06 05:50:06;;;;;;;7.78;6.88;;;17.60;99.90;;;;;;5040364;28;36484;-75
2023/09/06 05:52:33;;;;;;;8.48;7.05;;;17.70;99.90;;;;;;5044804;28;46916;-74
2023/09/06 05:54:59;;;;;;;8.63;6.50;;;17.70;99.90;;;;;;5047358;28;37581;-75
2023/09/06 05:57:26;;;;;;;9.13;7.68;;;17.70;99.90;;;;;;5048988;28;37895;-76
2023/09/06 05:59:52;;;;;;;9.75;7.65;;;17.70;99.90;;;;;;5052043;28;36018;-80
2023/09/06 06:02:18;;;;;;;7.45;6.28;;;17.80;99.90;;;;;;5042965;28;37833;-76
2023/09/06 06:04:45;;;;;;;8.85;6.80;;;17.90;99.90;;;;;;5043173;28;37215;-77
2023/09/06 06:07:13;;;;;;;8.32;6.82;;;18.00;99.90;;;;;;5045770;28;38202;-76
2023/09/06 06:09:39;;;;;;;9.52;6.70;;;18.00;99.90;;;;;;5051385;28;37328;-76
2023/09/06 06:12:06;;;;;;;9.05;7.40;;;18.10;99.90;;;;;;5040136;28;37641;-77
2023/09/06 06:14:32;;;;;;;9.20;7.13;;;18.20;99.90;;;;;;5049090;28;37178;-78
2023/09/06 06:16:58;;;;;;;10.23;6.53;;;18.20;99.90;;;;;;5052224;28;37090;-77
2023/09/06 06:19:24;;;;;;;11.95;6.45;;;18.20;99.90;;;;;;5044564;28;36105;-77
2023/09/06 06:21:50;;;;;;;9.27;7.18;;;18.30;99.90;;;;;;5053203;28;40263;-76
2023/09/06 06:24:16;;;;;;;9.65;7.38;;;18.30;99.90;;;;;;5048721;28;37388;-76
2023/09/06 06:26:43;;;;;;;10.00;7.10;;;18.40;99.90;;;;;;5051267;28;38783;-76
2023/09/06 06:29:09;;;;;;;7.07;6.40;;;18.40;99.90;;;;;;5052152;28;37128;-75
2023/09/06 06:31:35;;;;;;;7.50;5.93;;;18.50;99.90;;;;;;5046945;28;39521;-76
2023/09/06 06:34:01;;;;;;;12.07;6.60;;;18.60;99.90;;;;;;5037218;28;38789;-75
2023/09/06 06:36:30;;;;;;;7.43;6.35;;;18.70;99.90;;;;;;5048329;28;48786;-76
2023/09/06 06:38:56;;;;;;;6.60;5.93;;;18.80;99.90;;;;;;5046025;28;36744;-76
2023/09/06 06:41:23;;;;;;;7.32;6.43;;;19.00;99.90;;;;;;5046749;28;38381;-75
2023/09/06 06:43:49;;;;;;;8.63;6.95;;;19.10;99.90;;;;;;5046668;28;37369;-75
2023/09/06 06:46:28;;;;;;;6.70;5.90;;;19.20;99.90;;;;;;5060912;28;36940;-75
2023/09/06 06:48:55;;;;;;;8.10;6.38;;;19.20;99.90;;;;;;5055089;28;37776;-75
2023/09/06 06:51:21;;;;;;;7.15;6.30;;;19.40;99.90;;;;;;5034451;28;38556;-75
2023/09/06 06:53:47;;;;;;;7.47;6.65;;;19.50;99.90;;;;;;5058620;28;34933;-75
2023/09/06 06:56:14;;;;;;;9.88;6.25;;;19.60;99.90;;;;;;5041606;28;38038;-75
2023/09/06 06:58:40;;;;;;;8.98;6.20;;;19.80;99.90;;;;;;5047013;28;37097;-75
2023/09/06 07:01:07;;;;;;;7.90;6.65;;;20.00;99.90;;;;;;5055686;28;39015;-77
2023/09/06 07:03:33;;;;;;;10.00;6.15;;;20.00;99.90;;;;;;5044798;28;38275;-76
2023/09/06 07:05:59;;;;;;;10.60;6.63;;;20.00;99.90;;;;;;5045440;28;37918;-75
2023/09/06 07:08:26;;;;;;;7.72;5.60;;;20.00;99.90;;;;;;5045723;28;36086;-75
2023/09/06 07:10:53;;;;;;;9.23;6.40;;;20.10;99.90;;;;;;5049196;28;38650;-76
2023/09/06 07:13:19;;;;;;;10.00;6.22;;;20.20;99.90;;;;;;5046404;28;39001;-76
2023/09/06 07:15:45;;;;;;;8.32;6.38;;;20.30;99.90;;;;;;5038558;28;37196;-76
2023/09/06 07:18:12;;;;;;;11.55;6.63;;;20.40;99.90;;;;;;5047035;28;35934;-75
2023/09/06 07:20:38;;;;;;;7.28;6.35;;;20.50;99.90;;;;;;5046330;28;39228;-75
2023/09/06 07:23:04;;;;;;;10.48;5.68;;;20.50;99.90;;;;;;5048738;28;38084;-74
2023/09/06 07:25:31;;;;;;;7.30;6.57;;;20.70;99.90;;;;;;5046597;28;37210;-75
2023/09/06 07:27:59;;;;;;;12.45;7.15;;;20.80;99.90;;;;;;5042236;28;37099;-75
2023/09/06 07:30:28;;;;;;;6.93;6.00;;;20.90;99.90;;;;;;5051781;28;38347;-75
2023/09/06 07:32:54;;;;;;;8.88;6.78;;;21.00;99.90;;;;;;5048728;28;39164;-74
2023/09/06 07:35:20;;;;;;;11.65;6.38;;;21.10;99.90;;;;;;5043664;28;36883;-74
2023/09/06 07:37:46;;;;;;;8.18;6.50;;;21.20;99.90;;;;;;5050083;28;37444;-73
2023/09/06 07:40:13;;;;;;;13.85;6.57;;;21.40;99.90;;;;;;5052238;28;38226;-75
2023/09/06 07:42:39;;;;;;;9.02;6.78;;;21.40;99.90;;;;;;5049078;28;38355;-75
2023/09/06 07:45:07;;;;;;;7.20;6.43;;;21.50;99.90;;;;;;5040484;28;36730;-77
2023/09/06 07:47:34;;;;;;;7.85;6.45;;;21.60;99.90;;;;;;5044210;28;36159;-77
2023/09/06 07:50:00;;;;;;;8.05;6.32;;;21.80;99.90;;;;;;5040675;28;39685;-78
2023/09/06 07:52:26;;;;;;;7.72;5.93;;;21.90;99.90;;;;;;5035889;28;39546;-78
2023/09/06 07:54:52;;;;;;;12.93;6.63;;;21.90;99.90;;;;;;5038682;28;37779;-78
2023/09/06 07:57:19;;;;;;;8.18;5.97;;;22.00;99.90;;;;;;5040998;28;36584;-78
2023/09/06 07:59:46;;;;;;;8.07;6.40;;;22.20;99.90;;;;;;5041074;28;36748;-79
2023/09/06 08:02:12;;;;;;;10.80;6.13;;;22.40;99.90;;;;;;5047247;28;37564;-79
2023/09/06 08:04:38;;;;;;;7.32;6.22;;;22.50;99.90;;;;;;5047752;28;36919;-79
2023/09/06 08:07:04;;;;;;;12.52;6.55;;;22.60;99.90;;;;;;5045752;28;37545;-79
2023/09/06 08:09:30;;;;;;;12.40;5.65;;;22.70;99.90;;;;;;5039381;28;39916;-79
2023/09/06 08:11:56;;;;;;;7.00;5.68;;;22.90;99.90;;;;;;5042440;28;37373;-79
2023/09/06 08:14:22;;;;;;;9.77;6.03;;;23.00;99.90;;;;;;5044424;28;36977;-79
2023/09/06 08:16:48;;;;;;;8.10;5.82;;;23.20;99.90;;;;;;5045284;28;37493;-78
2023/09/06 08:19:14;;;;;;;6.80;5.32;;;23.40;99.90;;;;;;5043236;28;37814;-78
2023/09/06 08:21:42;;;;;;;8.77;5.30;;;23.60;99.90;;;;;;5043684;28;37765;-78
2023/09/06 08:24:08;;;;;;;8.70;6.63;;;23.80;99.90;;;;;;5044188;28;38149;-78
2023/09/06 08:26:36;;;;;;;9.48;6.20;;;24.00;99.90;;;;;;5045248;28;36971;-79
2023/09/06 08:29:04;;;;;;;10.07;6.65;;;24.20;99.90;;;;;;5043450;28;39424;-78
2023/09/06 08:31:30;;;;;;;9.02;6.50;;;24.50;99.90;;;;;;5038394;28;38267;-78
2023/09/06 08:33:56;;;;;;;8.05;5.85;;;24.70;99.90;;;;;;5043345;28;37236;-79
2023/09/06 08:36:22;;;;;;;9.57;6.28;;;24.90;99.90;;;;;;5048735;28;35715;-79
2023/09/06 08:38:48;;;;;;;8.02;5.97;;;25.00;99.90;;;;;;5041653;28;38575;-78
2023/09/06 08:41:15;;;;;;;9.63;5.60;;;25.10;99.90;;;;;;5038815;28;37380;-78
2023/09/06 08:43:44;;;;;;;9.90;5.80;;;25.20;99.90;;;;;;5039179;28;38705;-78
2023/09/06 08:46:28;;;;;;;9.85;6.47;;;25.40;99.90;;;;;;5042186;28;36202;-79
2023/09/06 08:48:56;;;;;;;6.35;4.90;;;25.40;99.90;;;;;;5043580;28;38041;-79
2023/09/06 08:51:22;;;;;;;8.00;6.00;;;25.50;99.90;;;;;;5043893;28;38580;-79
2023/09/06 08:53:49;;;;;;;8.20;5.30;;;25.70;99.90;;;;;;5047146;28;37907;-79
2023/09/06 08:56:18;;;;;;;8.90;5.32;;;25.70;99.90;;;;;;5043005;28;37421;-78
2023/09/06 08:58:44;;;;;;;9.18;6.00;;;25.70;97.20;;;;;;5043862;28;37783;-78
2023/09/06 09:01:10;;;;;;;8.77;5.13;;;25.80;91.50;;;;;;5055440;28;37007;-78
2023/09/06 09:03:36;;;;;;;9.63;5.85;;;26.00;99.90;;;;;;5043665;28;36835;-76
2023/09/06 09:06:08;;;;;;;8.95;5.45;;;26.00;86.40;;;;;;5060698;28;36475;-77
2023/09/06 09:08:35;;;;;;;8.15;4.47;;;26.10;99.90;;;;;;5041465;28;39367;-77
2023/09/06 09:11:18;;;;;;;6.10;4.30;;;26.30;99.90;;;;;;5048607;28;38569;-77
2023/09/06 09:13:45;;;;;;;9.45;6.00;;;26.40;99.90;;;;;;5045654;28;37710;-77
2023/09/06 09:16:14;;;;;;;7.57;5.35;;;26.50;99.90;;;;;;5048377;28;37011;-77
2023/09/06 09:18:42;;;;;;;9.13;5.20;;;26.70;99.90;;;;;;5056671;28;38776;-77
2023/09/06 09:21:11;;;;;;;6.05;5.28;;;26.80;93.60;;;;;;5042845;28;37245;-77
2023/09/06 09:23:54;;;;;;;8.65;5.82;;;26.90;96.10;;;;;;5046176;28;37988;-77
2023/09/06 09:26:21;;;;;;;10.07;5.00;;;26.90;95.70;;;;;;5046515;28;38280;-77
2023/09/06 09:28:49;;;;;;;9.70;4.75;;;27.00;98.20;;;;;;5046199;28;38519;-77
2023/09/06 09:31:16;;;;;;;7.13;5.05;;;27.10;82.50;;;;;;5037968;28;37050;-77
2023/09/06 09:33:44;;;;;;;5.03;4.45;;;27.00;92.50;;;;;;5043938;28;38059;-77
2023/09/06 09:36:14;;;;;;;9.00;5.10;;;27.20;99.90;;;;;;5042196;28;37473;-77
2023/09/06 09:38:42;;;;;;;6.38;5.03;;;27.20;94.10;;;;;;5041904;28;37904;-77
2023/09/06 09:41:09;;;;;;;5.32;4.60;;;27.30;95.80;;;;;;5044883;28;38589;-77
2023/09/06 09:43:35;;;;;;;8.15;4.70;;;27.50;95.10;;;;;;5045908;28;39059;-77
2023/09/06 09:46:02;;;;;;;11.98;5.13;;;27.80;99.90;;;;;;5044024;28;36941;-77
2023/09/06 09:48:32;;;;;;;11.82;4.80;;;27.70;59.10;;;;;;5044389;28;47121;-77
2023/09/06 09:51:07;;;;;;;5.40;4.35;;;27.80;67.50;;;;;;5041896;28;37914;-77
2023/09/06 09:53:35;;;;;;;8.52;5.03;;;27.90;62.60;;;;;;5043851;28;48924;-77
2023/09/06 09:56:06;;;;;;;8.00;5.32;;;28.00;61.80;;;;;;5046173;28;36171;-77
2023/09/06 09:58:36;;;;;;;7.65;4.60;;;28.10;61.30;;;;;;5044119;28;38595;-77
2023/09/06 10:01:06;;;;;;;5.75;4.60;;;28.10;28.50;;;;;;5040436;28;39568;-77
2023/09/06 10:03:33;;;;;;;4.28;3.50;;;28.10;40.70;;;;;;5040542;28;37192;-76
2023/09/06 10:06:03;;;;;;;5.45;4.05;;;28.10;63.00;;;;;;5043713;28;35686;-76
2023/09/06 10:08:32;;;;;;;5.93;3.70;;;28.10;41.40;;;;;;5042847;28;47131;-76
2023/09/06 10:10:58;;;;;;;9.50;4.35;;;28.00;37.10;;;;;;5042500;28;39360;-76
2023/09/06 10:13:28;;;;;;;10.07;3.78;;;28.10;39.60;;;;;;5042348;28;37771;-76
2023/09/06 10:15:56;;;;;;;7.72;3.33;;;28.30;74.20;;;;;;5034591;28;37341;-76
2023/09/06 10:18:22;;;;;;;4.40;3.08;;;28.40;26.40;;;;;;5049539;28;38748;-76
2023/09/06 10:20:49;;;;;;;3.75;2.60;;;28.40;47.60;;;;;;5044939;28;37416;-76
2023/09/06 10:23:17;;;;;;;4.55;2.47;;;28.50;35.00;;;;;;5045037;28;38319;-76
2023/09/06 10:25:49;;;;;;;3.00;2.65;;;28.50;4.20;;;;;;5039830;28;36015;-77
2023/09/06 10:28:20;;;;;;;4.85;2.83;;;28.50;29.20;;;;;;5046185;28;38579;-77
2023/09/06 10:30:54;;;;;;;5.90;3.05;;;28.60;25.30;;;;;;5048875;28;37763;-77
2023/09/06 10:33:31;;;;;;;5.32;2.35;;;28.70;7.70;;;;;;5045124;28;38040;-77
2023/09/06 10:35:59;;;;;;;4.07;2.83;;;28.60;1.00;;;;;;5046254;28;36704;-77
2023/09/06 10:38:26;;;;;;;6.68;2.88;;;28.60;1.00;;;;;;5043941;28;38397;-77
2023/09/06 10:40:55;;;;;;;4.32;2.45;;;28.50;1.00;;;;;;5047591;28;37638;-77
2023/09/06 10:43:28;;;;;;;5.07;2.40;;;28.70;1.00;;;;;;5043145;28;36804;-77
2023/09/06 10:45:58;;;;;;;5.15;2.70;;;28.80;1.00;;;;;;5047352;28;37955;-77
2023/09/06 10:48:25;;;;;;;5.07;2.38;;;28.90;6.60;;;;;;5049105;28;39999;-77
2023/09/06 10:51:12;;;;;;;4.88;2.20;;;29.20;28.50;;;;;;5039126;28;39124;-77
2023/09/06 10:53:41;;;;;;;6.22;2.72;;;29.50;48.80;;;;;;5044670;28;47211;-77
2023/09/06 10:56:07;;;;;;;6.20;2.50;;;29.60;1.00;;;;;;5034481;28;37162;-77
2023/09/06 10:58:34;;;;;;;5.35;3.05;;;29.40;1.00;;;;;;5042896;28;37493;-77
2023/09/06 11:01:21;;;;;;;3.42;2.50;;;29.30;1.00;;;;;;5044183;28;38114;-78
2023/09/06 11:03:54;;;;;;;4.63;2.40;;;29.50;1.00;;;;;;5041320;28;46699;-78
2023/09/06 11:06:22;;;;;;;3.70;2.40;;;29.60;1.00;;;;;;5043275;28;36315;-77
2023/09/06 11:08:49;;;;;;;6.53;2.97;;;29.60;7.50;;;;;;5040470;28;38977;-77
2023/09/06 11:11:15;;;;;;;4.78;2.90;;;29.70;1.00;;;;;;5045680;28;37444;-77
2023/09/06 11:13:44;;;;;;;4.40;2.60;;;29.80;1.00;;;;;;5033378;28;37036;-82
2023/09/06 11:16:16;;;;;;;3.50;2.75;;;29.90;1.00;;;;;;5038667;28;36342;-82
2023/09/06 11:18:44;;;;;;;7.85;2.90;;;30.00;22.10;;;;;;5035524;28;38338;-81
2023/09/06 11:21:14;;;;;;;4.03;2.78;;;30.00;1.00;;;;;;5044302;28;37204;-82
2023/09/06 11:23:48;;;;;;;3.58;2.80;;;29.90;1.00;;;;;;5043144;28;37725;-83
2023/09/06 11:26:15;;;;;;;3.10;2.80;;;29.90;1.00;;;;;;5042098;28;37927;-82
2023/09/06 11:28:47;;;;;;;3.30;2.92;;;30.00;1.00;;;;;;5033324;28;38602;-81
2023/09/06 11:31:25;;;;;;;4.50;2.55;;;30.10;1.00;;;;;;5039844;28;37546;-82
2023/09/06 11:34:01;;;;;;;3.22;2.60;;;30.00;1.00;;;;;;5035241;28;38703;-81
2023/09/06 11:36:30;;;;;;;5.22;2.63;;;29.90;1.00;;;;;;5039524;28;47864;-78
2023/09/06 11:39:34;;;;;;;5.40;2.20;;;29.90;1.00;;;;;;5039419;28;38591;-78
2023/09/06 11:41:50;;;;;;;4.13;2.50;;;30.20;1.00;;;;;;5042359;28;48590;-78
2023/09/06 11:44:19;;;;;;;6.03;2.53;;;30.20;1.00;;;;;;5040883;28;36855;-77
2023/09/06 11:46:48;;;;;;;4.07;2.50;;;30.10;1.00;;;;;;5031972;28;36120;-77
2023/09/06 11:49:17;;;;;;;5.25;2.65;;;30.10;1.00;;;;;;5040181;28;37662;-79
2023/09/06 11:51:46;;;;;;;6.25;2.45;;;30.30;1.00;;;;;;5056987;28;38776;-78
2023/09/06 11:54:12;;;;;;;5.75;2.70;;;30.50;1.00;;;;;;5043940;28;38841;-79
2023/09/06 11:56:42;;;;;;;4.78;2.70;;;30.60;1.00;;;;;;5040233;28;35957;-79
2023/09/06 11:59:12;;;;;;;4.78;2.55;;;30.50;1.00;;;;;;5035239;28;37534;-77
2023/09/06 12:01:40;;;;;;;9.88;2.35;;;30.20;1.00;;;;;;5037496;28;39747;-77
2023/09/06 12:04:13;;;;;;;2.65;1.95;;;30.20;1.00;;;;;;5039550;28;37106;-77
2023/09/06 12:06:41;;;;;;;2.67;2.28;;;30.20;1.00;;;;;;5037286;28;35968;-78
2023/09/06 12:09:12;;;;;;;2.47;2.00;;;30.30;1.00;;;;;;5039467;28;38192;-77
2023/09/06 12:11:38;;;;;;;3.03;1.53;;;30.20;1.00;;;;;;5041574;28;37294;-77
2023/09/06 12:14:04;;;;;;;3.90;2.15;;;30.50;1.00;;;;;;5041773;28;38083;-77
2023/09/06 12:16:31;;;;;;;2.20;2.00;;;30.50;1.00;;;;;;5040971;28;37094;-76
2023/09/06 12:18:57;;;;;;;4.05;2.22;;;30.50;1.00;;;;;;5035322;28;38964;-77
2023/09/06 12:21:23;;;;;;;3.67;2.00;;;30.70;1.00;;;;;;5044005;28;37346;-77
2023/09/06 12:23:49;;;;;;;2.90;1.90;;;30.80;1.00;;;;;;5044927;28;38181;-77
2023/09/06 12:26:16;;;;;;;1.90;1.77;;;30.70;1.00;;;;;;5041715;28;38207;-77
2023/09/06 12:28:43;;;;;;;2.70;2.00;;;30.50;1.00;;;;;;5039821;28;37481;-77
2023/09/06 12:31:11;;;;;;;4.30;2.10;;;30.30;1.00;;;;;;5037512;28;38299;-77
2023/09/06 12:33:37;;;;;;;4.18;2.25;;;30.40;1.00;;;;;;5043079;28;38737;-76
2023/09/06 12:36:05;;;;;;;3.08;2.20;;;30.40;1.00;;;;;;5040926;28;36940;-76
2023/09/06 12:38:32;;;;;;;4.60;2.25;;;30.60;1.00;;;;;;5039687;28;38487;-77
2023/09/06 12:41:03;;;;;;;3.53;2.30;;;30.70;1.00;;;;;;5041782;28;38752;-77
2023/09/06 12:43:34;;;;;;;3.90;2.10;;;30.70;1.00;;;;;;5042965;28;48597;-78
2023/09/06 12:46:02;;;;;;;5.22;2.58;;;30.60;1.00;;;;;;5043066;28;36927;-77
2023/09/06 12:48:28;;;;;;;3.13;2.10;;;30.50;1.00;;;;;;5039696;28;47211;-78
2023/09/06 12:50:54;;;;;;;3.63;1.95;;;30.50;99.90;;;;;;5045632;28;38234;-79
2023/09/06 12:53:21;;;;;;;3.05;1.83;;;30.60;1.00;;;;;;5044306;28;38375;-77